sensor_id;sensor_type;location;lat;lon;timestamp;temperature;humidity
6210;DHT22;3138;52.550;13.148;2022-09-03T00:00:34;13.10;91.90
6210;DHT22;3138;52.550;13.148;2022-09-03T00:03:07;13.10;91.50
6210;DHT22;3138;52.550;13.148;2022-09-03T00:05:40;13.00;91.50
6210;DHT22;3138;52.550;13.148;2022-09-03T00:08:11;12.80;92.00
6210;DHT22;3138;52.550;13.148;2022-09-03T00:10:45;12.80;92.30
6210;DHT22;3138;52.550;13.148;2022-09-03T00:13:18;12.80;91.90
6210;DHT22;3138;52.550;13.148;2022-09-03T00:15:47;12.90;92.10
6210;DHT22;3138;52.550;13.148;2022-09-03T00:18:17;12.90;91.70
6210;DHT22;3138;52.550;13.148;2022-09-03T00:20:50;12.90;91.90
6210;DHT22;3138;52.550;13.148;2022-09-03T00:23:20;12.80;92.00
6210;DHT22;3138;52.550;13.148;2022-09-03T00:25:53;13.00;91.70
6210;DHT22;3138;52.550;13.148;2022-09-03T00:28:24;13.10;91.20
6210;DHT22;3138;52.550;13.148;2022-09-03T00:31:02;12.90;91.30
6210;DHT22;3138;52.550;13.148;2022-09-03T00:33:32;13.10;90.80
6210;DHT22;3138;52.550;13.148;2022-09-03T00:36:09;13.20;90.40
6210;DHT22;3138;52.550;13.148;2022-09-03T00:38:37;13.30;90.10
6210;DHT22;3138;52.550;13.148;2022-09-03T00:41:08;13.40;89.30
6210;DHT22;3138;52.550;13.148;2022-09-03T00:43:50;13.40;89.80
6210;DHT22;3138;52.550;13.148;2022-09-03T00:46:23;13.40;89.30
6210;DHT22;3138;52.550;13.148;2022-09-03T00:49:08;13.40;89.50
6210;DHT22;3138;52.550;13.148;2022-09-03T00:51:43;13.40;89.40
6210;DHT22;3138;52.550;13.148;2022-09-03T00:54:19;13.30;89.70
6210;DHT22;3138;52.550;13.148;2022-09-03T00:56:56;13.40;88.80
6210;DHT22;3138;52.550;13.148;2022-09-03T00:59:33;13.40;88.60
6210;DHT22;3138;52.550;13.148;2022-09-03T01:02:14;13.40;89.30
6210;DHT22;3138;52.550;13.148;2022-09-03T01:04:51;13.40;89.10
6210;DHT22;3138;52.550;13.148;2022-09-03T01:07:31;13.30;89.50
6210;DHT22;3138;52.550;13.148;2022-09-03T01:10:06;13.30;89.50
6210;DHT22;3138;52.550;13.148;2022-09-03T01:12:43;13.30;89.10
6210;DHT22;3138;52.550;13.148;2022-09-03T01:15:16;13.30;89.50
6210;DHT22;3138;52.550;13.148;2022-09-03T01:17:58;13.30;90.00
6210;DHT22;3138;52.550;13.148;2022-09-03T01:20:36;13.20;90.20
6210;DHT22;3138;52.550;13.148;2022-09-03T01:26:32;13.20;90.20
6210;DHT22;3138;52.550;13.148;2022-09-03T01:29:11;13.20;90.10
6210;DHT22;3138;52.550;13.148;2022-09-03T01:31:47;13.10;90.30
6210;DHT22;3138;52.550;13.148;2022-09-03T01:34:23;13.10;90.50
6210;DHT22;3138;52.550;13.148;2022-09-03T01:37:03;13.10;90.60
6210;DHT22;3138;52.550;13.148;2022-09-03T01:39:41;13.20;90.20
6210;DHT22;3138;52.550;13.148;2022-09-03T01:42:19;13.20;90.20
6210;DHT22;3138;52.550;13.148;2022-09-03T01:45:04;13.10;90.60
6210;DHT22;3138;52.550;13.148;2022-09-03T01:47:47;13.10;90.40
6210;DHT22;3138;52.550;13.148;2022-09-03T01:50:28;12.90;90.80
6210;DHT22;3138;52.550;13.148;2022-09-03T01:53:06;12.80;91.10
6210;DHT22;3138;52.550;13.148;2022-09-03T01:55:48;12.80;91.50
6210;DHT22;3138;52.550;13.148;2022-09-03T01:58:26;12.90;91.30
6210;DHT22;3138;52.550;13.148;2022-09-03T02:01:02;12.80;91.20
6210;DHT22;3138;52.550;13.148;2022-09-03T02:03:34;12.80;91.30
6210;DHT22;3138;52.550;13.148;2022-09-03T02:06:01;12.80;91.60
6210;DHT22;3138;52.550;13.148;2022-09-03T02:08:31;12.80;91.70
6210;DHT22;3138;52.550;13.148;2022-09-03T02:10:58;12.90;91.60
6210;DHT22;3138;52.550;13.148;2022-09-03T02:13:28;12.80;91.40
6210;DHT22;3138;52.550;13.148;2022-09-03T02:16:01;12.80;91.70
6210;DHT22;3138;52.550;13.148;2022-09-03T02:18:30;12.80;91.60
6210;DHT22;3138;52.550;13.148;2022-09-03T02:20:59;12.70;92.00
6210;DHT22;3138;52.550;13.148;2022-09-03T02:23:27;12.50;92.50
6210;DHT22;3138;52.550;13.148;2022-09-03T02:25:56;12.50;93.00
6210;DHT22;3138;52.550;13.148;2022-09-03T02:28:23;12.40;93.20
6210;DHT22;3138;52.550;13.148;2022-09-03T02:30:51;12.50;93.20
6210;DHT22;3138;52.550;13.148;2022-09-03T02:33:19;12.30;93.60
6210;DHT22;3138;52.550;13.148;2022-09-03T02:35:46;12.30;93.70
6210;DHT22;3138;52.550;13.148;2022-09-03T02:38:15;12.10;95.00
6210;DHT22;3138;52.550;13.148;2022-09-03T02:40:42;12.20;95.20
6210;DHT22;3138;52.550;13.148;2022-09-03T02:43:13;12.30;94.80
6210;DHT22;3138;52.550;13.148;2022-09-03T02:45:46;12.10;95.40
6210;DHT22;3138;52.550;13.148;2022-09-03T02:48:16;12.00;96.30
6210;DHT22;3138;52.550;13.148;2022-09-03T02:50:47;12.00;96.80
6210;DHT22;3138;52.550;13.148;2022-09-03T02:53:14;11.80;98.00
6210;DHT22;3138;52.550;13.148;2022-09-03T02:55:41;11.70;99.40
6210;DHT22;3138;52.550;13.148;2022-09-03T02:58:08;11.60;99.90
6210;DHT22;3138;52.550;13.148;2022-09-03T03:00:35;11.50;99.90
6210;DHT22;3138;52.550;13.148;2022-09-03T03:03:02;11.50;99.90
6210;DHT22;3138;52.550;13.148;2022-09-03T03:05:34;11.40;99.90
6210;DHT22;3138;52.550;13.148;2022-09-03T03:08:03;11.30;99.90
6210;DHT22;3138;52.550;13.148;2022-09-03T03:10:30;11.30;99.90
6210;DHT22;3138;52.550;13.148;2022-09-03T03:12:56;11.20;99.90
6210;DHT22;3138;52.550;13.148;2022-09-03T03:15:23;11.20;99.90
6210;DHT22;3138;52.550;13.148;2022-09-03T03:17:50;11.20;99.90
6210;DHT22;3138;52.550;13.148;2022-09-03T03:20:17;11.10;99.90
6210;DHT22;3138;52.550;13.148;2022-09-03T03:22:43;11.10;99.90
6210;DHT22;3138;52.550;13.148;2022-09-03T03:25:11;11.10;99.90
6210;DHT22;3138;52.550;13.148;2022-09-03T03:27:38;11.10;99.90
6210;DHT22;3138;52.550;13.148;2022-09-03T03:30:07;11.00;99.90
6210;DHT22;3138;52.550;13.148;2022-09-03T03:32:35;11.10;99.90
6210;DHT22;3138;52.550;13.148;2022-09-03T03:35:03;11.10;99.90
6210;DHT22;3138;52.550;13.148;2022-09-03T03:37:30;11.10;99.90
6210;DHT22;3138;52.550;13.148;2022-09-03T03:39:57;11.10;99.90
6210;DHT22;3138;52.550;13.148;2022-09-03T03:42:25;11.10;99.90
6210;DHT22;3138;52.550;13.148;2022-09-03T03:44:52;11.10;99.90
6210;DHT22;3138;52.550;13.148;2022-09-03T03:47:18;11.00;99.90
6210;DHT22;3138;52.550;13.148;2022-09-03T03:49:45;11.00;99.90
6210;DHT22;3138;52.550;13.148;2022-09-03T03:52:12;11.00;99.90
6210;DHT22;3138;52.550;13.148;2022-09-03T03:54:39;10.90;99.90
6210;DHT22;3138;52.550;13.148;2022-09-03T03:57:05;10.90;99.90
6210;DHT22;3138;52.550;13.148;2022-09-03T03:59:33;10.90;99.90
6210;DHT22;3138;52.550;13.148;2022-09-03T04:02:00;10.80;99.90
6210;DHT22;3138;52.550;13.148;2022-09-03T04:04:27;10.80;99.90
6210;DHT22;3138;52.550;13.148;2022-09-03T04:06:54;10.70;99.90
6210;DHT22;3138;52.550;13.148;2022-09-03T04:09:21;10.80;99.90
6210;DHT22;3138;52.550;13.148;2022-09-03T04:11:47;10.70;99.90
6210;DHT22;3138;52.550;13.148;2022-09-03T04:14:15;10.70;99.90
6210;DHT22;3138;52.550;13.148;2022-09-03T04:16:43;10.80;99.90
6210;DHT22;3138;52.550;13.148;2022-09-03T04:19:11;10.90;99.90
6210;DHT22;3138;52.550;13.148;2022-09-03T04:21:38;10.90;99.90
6210;DHT22;3138;52.550;13.148;2022-09-03T04:24:05;11.00;99.90
6210;DHT22;3138;52.550;13.148;2022-09-03T04:26:35;11.00;99.90
6210;DHT22;3138;52.550;13.148;2022-09-03T04:29:04;11.10;99.90
6210;DHT22;3138;52.550;13.148;2022-09-03T04:31:31;11.20;99.90
6210;DHT22;3138;52.550;13.148;2022-09-03T04:34:00;11.30;99.90
6210;DHT22;3138;52.550;13.148;2022-09-03T04:36:29;11.40;99.90
6210;DHT22;3138;52.550;13.148;2022-09-03T04:38:58;11.40;99.90
6210;DHT22;3138;52.550;13.148;2022-09-03T04:41:27;11.50;99.90
6210;DHT22;3138;52.550;13.148;2022-09-03T04:43:55;11.50;99.90
6210;DHT22;3138;52.550;13.148;2022-09-03T04:46:26;11.50;99.90
6210;DHT22;3138;52.550;13.148;2022-09-03T04:48:57;11.60;99.90
6210;DHT22;3138;52.550;13.148;2022-09-03T04:51:26;11.60;99.90
6210;DHT22;3138;52.550;13.148;2022-09-03T04:53:55;11.60;99.90
6210;DHT22;3138;52.550;13.148;2022-09-03T04:56:24;11.60;99.90
6210;DHT22;3138;52.550;13.148;2022-09-03T04:58:54;11.60;99.90
6210;DHT22;3138;52.550;13.148;2022-09-03T05:01:22;11.60;99.90
6210;DHT22;3138;52.550;13.148;2022-09-03T05:03:49;11.50;99.90
6210;DHT22;3138;52.550;13.148;2022-09-03T05:06:17;11.60;99.90
6210;DHT22;3138;52.550;13.148;2022-09-03T05:08:46;11.60;99.90
6210;DHT22;3138;52.550;13.148;2022-09-03T05:11:14;11.70;99.90
6210;DHT22;3138;52.550;13.148;2022-09-03T05:13:40;11.70;99.90
6210;DHT22;3138;52.550;13.148;2022-09-03T05:16:09;11.70;99.90
6210;DHT22;3138;52.550;13.148;2022-09-03T05:18:36;11.90;99.90
6210;DHT22;3138;52.550;13.148;2022-09-03T05:21:05;11.90;99.90
6210;DHT22;3138;52.550;13.148;2022-09-03T05:23:35;12.10;99.90
6210;DHT22;3138;52.550;13.148;2022-09-03T05:26:07;12.20;99.90
6210;DHT22;3138;52.550;13.148;2022-09-03T05:28:35;12.40;99.90
6210;DHT22;3138;52.550;13.148;2022-09-03T05:31:04;12.60;99.20
6210;DHT22;3138;52.550;13.148;2022-09-03T05:33:32;12.80;98.40
6210;DHT22;3138;52.550;13.148;2022-09-03T05:36:00;13.00;97.50
6210;DHT22;3138;52.550;13.148;2022-09-03T05:38:28;13.10;97.00
6210;DHT22;3138;52.550;13.148;2022-09-03T05:40:58;13.20;96.10
6210;DHT22;3138;52.550;13.148;2022-09-03T05:43:27;13.40;96.20
6210;DHT22;3138;52.550;13.148;2022-09-03T05:45:56;13.50;95.30
6210;DHT22;3138;52.550;13.148;2022-09-03T05:48:24;13.50;95.10
6210;DHT22;3138;52.550;13.148;2022-09-03T05:50:58;13.70;94.90
6210;DHT22;3138;52.550;13.148;2022-09-03T05:53:25;14.00;94.70
6210;DHT22;3138;52.550;13.148;2022-09-03T05:55:54;14.10;93.80
6210;DHT22;3138;52.550;13.148;2022-09-03T05:58:22;14.20;93.20
6210;DHT22;3138;52.550;13.148;2022-09-03T06:00:51;14.30;93.10
6210;DHT22;3138;52.550;13.148;2022-09-03T06:03:18;14.40;92.90
6210;DHT22;3138;52.550;13.148;2022-09-03T06:05:49;14.50;92.20
6210;DHT22;3138;52.550;13.148;2022-09-03T06:08:16;14.60;92.60
6210;DHT22;3138;52.550;13.148;2022-09-03T06:10:43;14.80;91.90
6210;DHT22;3138;52.550;13.148;2022-09-03T06:13:10;14.70;91.70
6210;DHT22;3138;52.550;13.148;2022-09-03T06:15:37;14.50;91.90
6210;DHT22;3138;52.550;13.148;2022-09-03T06:18:05;14.40;92.50
6210;DHT22;3138;52.550;13.148;2022-09-03T06:20:32;14.30;92.60
6210;DHT22;3138;52.550;13.148;2022-09-03T06:22:59;14.20;92.90
6210;DHT22;3138;52.550;13.148;2022-09-03T06:25:26;14.20;93.10
6210;DHT22;3138;52.550;13.148;2022-09-03T06:27:53;14.30;93.50
6210;DHT22;3138;52.550;13.148;2022-09-03T06:30:19;14.50;93.30
6210;DHT22;3138;52.550;13.148;2022-09-03T06:32:47;14.50;92.70
6210;DHT22;3138;52.550;13.148;2022-09-03T06:35:17;14.60;93.00
6210;DHT22;3138;52.550;13.148;2022-09-03T06:37:44;14.70;93.30
6210;DHT22;3138;52.550;13.148;2022-09-03T06:40:11;14.80;92.40
6210;DHT22;3138;52.550;13.148;2022-09-03T06:42:38;15.00;92.90
6210;DHT22;3138;52.550;13.148;2022-09-03T06:45:06;14.90;92.10
6210;DHT22;3138;52.550;13.148;2022-09-03T06:47:34;15.00;91.90
6210;DHT22;3138;52.550;13.148;2022-09-03T06:50:01;15.10;91.50
6210;DHT22;3138;52.550;13.148;2022-09-03T06:52:29;14.90;91.30
6210;DHT22;3138;52.550;13.148;2022-09-03T06:54:56;15.00;91.20
6210;DHT22;3138;52.550;13.148;2022-09-03T06:57:22;14.90;91.10
6210;DHT22;3138;52.550;13.148;2022-09-03T06:59:49;15.10;91.30
6210;DHT22;3138;52.550;13.148;2022-09-03T07:02:16;15.20;91.10
6210;DHT22;3138;52.550;13.148;2022-09-03T07:04:43;15.30;90.90
6210;DHT22;3138;52.550;13.148;2022-09-03T07:07:10;15.30;90.40
6210;DHT22;3138;52.550;13.148;2022-09-03T07:09:39;15.70;89.50
6210;DHT22;3138;52.550;13.148;2022-09-03T07:12:06;15.70;89.90
6210;DHT22;3138;52.550;13.148;2022-09-03T07:14:35;15.70;88.90
6210;DHT22;3138;52.550;13.148;2022-09-03T07:17:02;15.80;88.60
6210;DHT22;3138;52.550;13.148;2022-09-03T07:19:28;15.70;87.70
6210;DHT22;3138;52.550;13.148;2022-09-03T07:21:55;15.60;88.80
6210;DHT22;3138;52.550;13.148;2022-09-03T07:24:22;15.80;88.00
6210;DHT22;3138;52.550;13.148;2022-09-03T07:26:50;15.90;87.50
6210;DHT22;3138;52.550;13.148;2022-09-03T07:29:17;16.00;87.60
6210;DHT22;3138;52.550;13.148;2022-09-03T07:31:45;16.00;88.80
6210;DHT22;3138;52.550;13.148;2022-09-03T07:34:13;16.20;88.20
6210;DHT22;3138;52.550;13.148;2022-09-03T07:36:42;16.30;87.00
6210;DHT22;3138;52.550;13.148;2022-09-03T07:39:12;16.40;86.90
6210;DHT22;3138;52.550;13.148;2022-09-03T07:41:39;16.60;88.50
6210;DHT22;3138;52.550;13.148;2022-09-03T07:44:09;16.50;86.30
6210;DHT22;3138;52.550;13.148;2022-09-03T07:46:36;16.70;85.10
6210;DHT22;3138;52.550;13.148;2022-09-03T07:49:05;16.70;84.70
6210;DHT22;3138;52.550;13.148;2022-09-03T07:51:34;16.70;85.20
6210;DHT22;3138;52.550;13.148;2022-09-03T07:54:04;16.60;83.60
6210;DHT22;3138;52.550;13.148;2022-09-03T07:56:32;16.50;82.80
6210;DHT22;3138;52.550;13.148;2022-09-03T07:59:00;16.60;85.10
6210;DHT22;3138;52.550;13.148;2022-09-03T08:01:29;16.60;84.00
6210;DHT22;3138;52.550;13.148;2022-09-03T08:03:57;16.60;81.80
6210;DHT22;3138;52.550;13.148;2022-09-03T08:06:26;16.60;86.10
6210;DHT22;3138;52.550;13.148;2022-09-03T08:08:54;16.90;85.60
6210;DHT22;3138;52.550;13.148;2022-09-03T08:11:23;16.80;82.70
6210;DHT22;3138;52.550;13.148;2022-09-03T08:13:54;16.60;82.20
6210;DHT22;3138;52.550;13.148;2022-09-03T08:16:22;16.90;83.50
6210;DHT22;3138;52.550;13.148;2022-09-03T08:18:50;16.90;81.80
6210;DHT22;3138;52.550;13.148;2022-09-03T08:21:18;17.10;82.60
6210;DHT22;3138;52.550;13.148;2022-09-03T08:23:47;17.30;82.00
6210;DHT22;3138;52.550;13.148;2022-09-03T08:26:15;17.50;81.70
6210;DHT22;3138;52.550;13.148;2022-09-03T08:28:42;17.60;79.50
6210;DHT22;3138;52.550;13.148;2022-09-03T08:31:11;17.80;80.70
6210;DHT22;3138;52.550;13.148;2022-09-03T08:33:39;17.90;79.10
6210;DHT22;3138;52.550;13.148;2022-09-03T08:36:10;18.00;80.00
6210;DHT22;3138;52.550;13.148;2022-09-03T08:38:38;18.00;78.40
6210;DHT22;3138;52.550;13.148;2022-09-03T08:41:11;18.20;75.90
6210;DHT22;3138;52.550;13.148;2022-09-03T08:43:59;18.20;75.10
6210;DHT22;3138;52.550;13.148;2022-09-03T08:46:40;18.30;74.00
6210;DHT22;3138;52.550;13.148;2022-09-03T08:49:11;18.60;73.20
6210;DHT22;3138;52.550;13.148;2022-09-03T08:51:42;18.70;71.70
6210;DHT22;3138;52.550;13.148;2022-09-03T08:54:12;19.00;77.30
6210;DHT22;3138;52.550;13.148;2022-09-03T08:56:41;19.50;73.40
6210;DHT22;3138;52.550;13.148;2022-09-03T08:59:08;19.50;70.90
6210;DHT22;3138;52.550;13.148;2022-09-03T09:01:45;19.10;70.70
6210;DHT22;3138;52.550;13.148;2022-09-03T09:04:22;19.30;71.90
6210;DHT22;3138;52.550;13.148;2022-09-03T09:06:57;19.60;72.30
6210;DHT22;3138;52.550;13.148;2022-09-03T09:09:31;19.70;71.20
6210;DHT22;3138;52.550;13.148;2022-09-03T09:12:07;19.30;71.10
6210;DHT22;3138;52.550;13.148;2022-09-03T09:14:38;19.50;70.70
6210;DHT22;3138;52.550;13.148;2022-09-03T09:17:23;19.40;70.80
6210;DHT22;3138;52.550;13.148;2022-09-03T09:20:02;19.30;70.30
6210;DHT22;3138;52.550;13.148;2022-09-03T09:22:35;19.40;66.00
6210;DHT22;3138;52.550;13.148;2022-09-03T09:25:08;19.70;67.70
6210;DHT22;3138;52.550;13.148;2022-09-03T09:27:43;19.70;64.60
6210;DHT22;3138;52.550;13.148;2022-09-03T09:30:15;19.80;62.30
6210;DHT22;3138;52.550;13.148;2022-09-03T09:32:42;20.10;63.70
6210;DHT22;3138;52.550;13.148;2022-09-03T09:35:09;19.90;64.00
6210;DHT22;3138;52.550;13.148;2022-09-03T09:37:50;19.90;62.90
6210;DHT22;3138;52.550;13.148;2022-09-03T09:40:26;20.10;63.20
6210;DHT22;3138;52.550;13.148;2022-09-03T09:43:03;20.10;62.00
6210;DHT22;3138;52.550;13.148;2022-09-03T09:45:30;20.20;59.80
6210;DHT22;3138;52.550;13.148;2022-09-03T09:47:58;20.50;62.20
6210;DHT22;3138;52.550;13.148;2022-09-03T09:50:25;20.80;60.20
6210;DHT22;3138;52.550;13.148;2022-09-03T09:53:01;20.70;58.80
6210;DHT22;3138;52.550;13.148;2022-09-03T09:55:32;21.10;58.90
6210;DHT22;3138;52.550;13.148;2022-09-03T09:58:07;20.70;57.30
6210;DHT22;3138;52.550;13.148;2022-09-03T10:00:35;20.90;57.30
6210;DHT22;3138;52.550;13.148;2022-09-03T10:03:08;20.70;57.20
6210;DHT22;3138;52.550;13.148;2022-09-03T10:05:38;20.70;54.50
6210;DHT22;3138;52.550;13.148;2022-09-03T10:08:17;20.90;56.00
6210;DHT22;3138;52.550;13.148;2022-09-03T10:10:47;21.50;54.20
6210;DHT22;3138;52.550;13.148;2022-09-03T10:13:17;21.30;53.30
6210;DHT22;3138;52.550;13.148;2022-09-03T10:15:49;21.20;52.80
6210;DHT22;3138;52.550;13.148;2022-09-03T10:18:23;21.10;52.40
6210;DHT22;3138;52.550;13.148;2022-09-03T10:20:59;21.00;51.50
6210;DHT22;3138;52.550;13.148;2022-09-03T10:23:32;21.60;53.20
6210;DHT22;3138;52.550;13.148;2022-09-03T10:26:05;22.00;52.60
6210;DHT22;3138;52.550;13.148;2022-09-03T10:28:34;22.00;50.20
6210;DHT22;3138;52.550;13.148;2022-09-03T10:31:13;22.00;48.70
6210;DHT22;3138;52.550;13.148;2022-09-03T10:33:47;22.10;49.00
6210;DHT22;3138;52.550;13.148;2022-09-03T10:36:20;22.20;48.40
6210;DHT22;3138;52.550;13.148;2022-09-03T10:38:53;22.30;49.50
6210;DHT22;3138;52.550;13.148;2022-09-03T10:41:31;21.90;44.20
6210;DHT22;3138;52.550;13.148;2022-09-03T10:44:16;21.90;44.20
6210;DHT22;3138;52.550;13.148;2022-09-03T10:46:55;21.60;41.80
6210;DHT22;3138;52.550;13.148;2022-09-03T10:49:44;21.60;43.70
6210;DHT22;3138;52.550;13.148;2022-09-03T10:52:19;21.30;41.50
6210;DHT22;3138;52.550;13.148;2022-09-03T10:54:58;21.10;40.60
6210;DHT22;3138;52.550;13.148;2022-09-03T10:57:36;20.80;42.80
6210;DHT22;3138;52.550;13.148;2022-09-03T11:00:08;20.90;43.50
6210;DHT22;3138;52.550;13.148;2022-09-03T11:02:55;21.50;43.00
6210;DHT22;3138;52.550;13.148;2022-09-03T11:05:28;21.40;41.30
6210;DHT22;3138;52.550;13.148;2022-09-03T11:07:59;21.30;44.00
6210;DHT22;3138;52.550;13.148;2022-09-03T11:10:29;21.40;43.60
6210;DHT22;3138;52.550;13.148;2022-09-03T11:13:02;21.20;43.20
6210;DHT22;3138;52.550;13.148;2022-09-03T11:15:33;21.30;44.20
6210;DHT22;3138;52.550;13.148;2022-09-03T11:18:09;21.20;44.10
6210;DHT22;3138;52.550;13.148;2022-09-03T11:20:38;21.20;43.20
6210;DHT22;3138;52.550;13.148;2022-09-03T11:23:08;21.80;46.10
6210;DHT22;3138;52.550;13.148;2022-09-03T11:25:42;22.10;45.50
6210;DHT22;3138;52.550;13.148;2022-09-03T11:28:15;22.00;43.70
6210;DHT22;3138;52.550;13.148;2022-09-03T11:31:09;21.30;42.50
6210;DHT22;3138;52.550;13.148;2022-09-03T11:33:41;21.50;42.90
6210;DHT22;3138;52.550;13.148;2022-09-03T11:36:10;21.70;44.30
6210;DHT22;3138;52.550;13.148;2022-09-03T11:38:37;21.60;43.80
6210;DHT22;3138;52.550;13.148;2022-09-03T11:41:11;21.70;42.80
6210;DHT22;3138;52.550;13.148;2022-09-03T11:43:40;21.70;43.80
6210;DHT22;3138;52.550;13.148;2022-09-03T11:46:10;21.60;42.70
6210;DHT22;3138;52.550;13.148;2022-09-03T11:48:44;21.60;42.90
6210;DHT22;3138;52.550;13.148;2022-09-03T11:51:30;21.40;41.00
6210;DHT22;3138;52.550;13.148;2022-09-03T11:54:01;22.00;40.80
6210;DHT22;3138;52.550;13.148;2022-09-03T11:56:31;22.10;38.50
6210;DHT22;3138;52.550;13.148;2022-09-03T11:59:06;22.30;39.20
6210;DHT22;3138;52.550;13.148;2022-09-03T12:01:46;21.90;39.20
6210;DHT22;3138;52.550;13.148;2022-09-03T12:04:18;21.80;38.80
6210;DHT22;3138;52.550;13.148;2022-09-03T12:13:01;22.00;38.70
6210;DHT22;3138;52.550;13.148;2022-09-03T12:15:41;22.20;40.00
6210;DHT22;3138;52.550;13.148;2022-09-03T12:18:14;22.20;40.70
6210;DHT22;3138;52.550;13.148;2022-09-03T12:20:58;22.20;40.30
6210;DHT22;3138;52.550;13.148;2022-09-03T12:23:26;22.40;40.20
6210;DHT22;3138;52.550;13.148;2022-09-03T12:25:54;22.30;38.80
6210;DHT22;3138;52.550;13.148;2022-09-03T12:28:23;22.10;39.30
6210;DHT22;3138;52.550;13.148;2022-09-03T12:30:52;21.80;40.10
6210;DHT22;3138;52.550;13.148;2022-09-03T12:33:19;21.70;39.90
6210;DHT22;3138;52.550;13.148;2022-09-03T12:35:56;21.60;39.10
6210;DHT22;3138;52.550;13.148;2022-09-03T12:38:24;21.80;38.50
6210;DHT22;3138;52.550;13.148;2022-09-03T12:40:51;21.90;39.50
6210;DHT22;3138;52.550;13.148;2022-09-03T12:43:19;22.20;39.30
6210;DHT22;3138;52.550;13.148;2022-09-03T12:45:48;22.40;38.70
6210;DHT22;3138;52.550;13.148;2022-09-03T12:48:17;22.10;38.90
6210;DHT22;3138;52.550;13.148;2022-09-03T12:50:46;21.90;39.80
6210;DHT22;3138;52.550;13.148;2022-09-03T12:53:16;21.70;39.30
6210;DHT22;3138;52.550;13.148;2022-09-03T12:55:48;21.80;40.70
6210;DHT22;3138;52.550;13.148;2022-09-03T12:58:17;21.70;39.40
6210;DHT22;3138;52.550;13.148;2022-09-03T13:00:50;21.40;38.50
6210;DHT22;3138;52.550;13.148;2022-09-03T13:03:23;21.60;40.30
6210;DHT22;3138;52.550;13.148;2022-09-03T13:05:55;21.60;39.40
6210;DHT22;3138;52.550;13.148;2022-09-03T13:08:26;21.80;39.60
6210;DHT22;3138;52.550;13.148;2022-09-03T13:10:56;22.30;38.50
6210;DHT22;3138;52.550;13.148;2022-09-03T13:13:25;22.30;36.00
6210;DHT22;3138;52.550;13.148;2022-09-03T13:16:04;22.40;37.80
6210;DHT22;3138;52.550;13.148;2022-09-03T13:18:38;22.10;34.80
6210;DHT22;3138;52.550;13.148;2022-09-03T13:21:13;22.20;37.10
6210;DHT22;3138;52.550;13.148;2022-09-03T13:23:54;22.20;35.60
6210;DHT22;3138;52.550;13.148;2022-09-03T13:26:31;22.30;35.40
6210;DHT22;3138;52.550;13.148;2022-09-03T13:29:14;22.10;36.30
6210;DHT22;3138;52.550;13.148;2022-09-03T13:31:48;21.90;36.90
6210;DHT22;3138;52.550;13.148;2022-09-03T13:34:19;21.80;36.50
6210;DHT22;3138;52.550;13.148;2022-09-03T13:36:50;21.90;36.40
6210;DHT22;3138;52.550;13.148;2022-09-03T13:39:25;22.10;35.60
6210;DHT22;3138;52.550;13.148;2022-09-03T13:41:56;22.10;36.60
6210;DHT22;3138;52.550;13.148;2022-09-03T13:44:34;21.80;35.90
6210;DHT22;3138;52.550;13.148;2022-09-03T13:47:10;21.70;34.90
6210;DHT22;3138;52.550;13.148;2022-09-03T13:49:42;21.70;35.70
6210;DHT22;3138;52.550;13.148;2022-09-03T13:52:31;21.90;36.90
6210;DHT22;3138;52.550;13.148;2022-09-03T13:55:03;21.90;34.30
6210;DHT22;3138;52.550;13.148;2022-09-03T13:57:37;22.10;35.60
6210;DHT22;3138;52.550;13.148;2022-09-03T14:00:08;22.50;35.50
6210;DHT22;3138;52.550;13.148;2022-09-03T14:02:45;22.50;34.90
6210;DHT22;3138;52.550;13.148;2022-09-03T14:05:22;22.50;34.20
6210;DHT22;3138;52.550;13.148;2022-09-03T14:08:03;22.30;36.10
6210;DHT22;3138;52.550;13.148;2022-09-03T14:10:50;22.20;35.50
6210;DHT22;3138;52.550;13.148;2022-09-03T14:13:23;22.00;33.40
6210;DHT22;3138;52.550;13.148;2022-09-03T14:15:58;22.10;33.80
6210;DHT22;3138;52.550;13.148;2022-09-03T14:18:36;22.50;34.90
6210;DHT22;3138;52.550;13.148;2022-09-03T14:21:08;22.30;34.30
6210;DHT22;3138;52.550;13.148;2022-09-03T14:23:45;22.10;35.70
6210;DHT22;3138;52.550;13.148;2022-09-03T14:26:18;22.10;36.30
6210;DHT22;3138;52.550;13.148;2022-09-03T14:28:48;21.80;36.80
6210;DHT22;3138;52.550;13.148;2022-09-03T14:31:32;21.70;35.30
6210;DHT22;3138;52.550;13.148;2022-09-03T14:34:09;21.80;36.40
6210;DHT22;3138;52.550;13.148;2022-09-03T14:36:46;21.70;35.70
6210;DHT22;3138;52.550;13.148;2022-09-03T14:39:29;21.70;36.00
6210;DHT22;3138;52.550;13.148;2022-09-03T14:42:12;21.80;37.60
6210;DHT22;3138;52.550;13.148;2022-09-03T14:44:58;22.10;36.70
6210;DHT22;3138;52.550;13.148;2022-09-03T14:47:38;21.70;34.70
6210;DHT22;3138;52.550;13.148;2022-09-03T14:50:21;21.70;35.90
6210;DHT22;3138;52.550;13.148;2022-09-03T14:53:01;21.70;36.30
6210;DHT22;3138;52.550;13.148;2022-09-03T14:56:03;21.90;36.80
6210;DHT22;3138;52.550;13.148;2022-09-03T14:58:42;21.90;36.90
6210;DHT22;3138;52.550;13.148;2022-09-03T15:01:12;21.80;34.50
6210;DHT22;3138;52.550;13.148;2022-09-03T15:06:56;21.70;35.10
6210;DHT22;3138;52.550;13.148;2022-09-03T15:09:32;21.80;35.50
6210;DHT22;3138;52.550;13.148;2022-09-03T15:12:07;22.00;34.30
6210;DHT22;3138;52.550;13.148;2022-09-03T15:14:40;22.10;34.70
6210;DHT22;3138;52.550;13.148;2022-09-03T15:17:29;22.20;35.50
6210;DHT22;3138;52.550;13.148;2022-09-03T15:20:13;22.10;34.70
6210;DHT22;3138;52.550;13.148;2022-09-03T15:23:03;22.10;34.20
6210;DHT22;3138;52.550;13.148;2022-09-03T15:25:51;22.00;33.80
6210;DHT22;3138;52.550;13.148;2022-09-03T15:28:25;22.00;34.80
6210;DHT22;3138;52.550;13.148;2022-09-03T15:31:02;22.00;35.10
6210;DHT22;3138;52.550;13.148;2022-09-03T15:33:34;22.00;34.30
6210;DHT22;3138;52.550;13.148;2022-09-03T15:36:13;22.20;34.80
6210;DHT22;3138;52.550;13.148;2022-09-03T15:38:49;22.30;35.30
6210;DHT22;3138;52.550;13.148;2022-09-03T15:41:27;22.40;35.60
6210;DHT22;3138;52.550;13.148;2022-09-03T15:43:58;22.30;33.60
6210;DHT22;3138;52.550;13.148;2022-09-03T15:46:35;22.20;33.30
6210;DHT22;3138;52.550;13.148;2022-09-03T15:49:07;22.10;33.60
6210;DHT22;3138;52.550;13.148;2022-09-03T15:51:45;22.00;34.30
6210;DHT22;3138;52.550;13.148;2022-09-03T15:54:20;21.90;35.00
6210;DHT22;3138;52.550;13.148;2022-09-03T15:56:54;21.60;34.30
6210;DHT22;3138;52.550;13.148;2022-09-03T15:59:27;21.40;35.90
6210;DHT22;3138;52.550;13.148;2022-09-03T16:02:02;21.20;35.30
6210;DHT22;3138;52.550;13.148;2022-09-03T16:04:42;21.10;34.80
6210;DHT22;3138;52.550;13.148;2022-09-03T16:07:19;21.00;36.20
6210;DHT22;3138;52.550;13.148;2022-09-03T16:10:06;21.00;34.70
6210;DHT22;3138;52.550;13.148;2022-09-03T16:12:40;21.10;34.90
6210;DHT22;3138;52.550;13.148;2022-09-03T16:15:13;21.00;35.50
6210;DHT22;3138;52.550;13.148;2022-09-03T16:17:50;21.00;35.80
6210;DHT22;3138;52.550;13.148;2022-09-03T16:20:20;21.00;36.20
6210;DHT22;3138;52.550;13.148;2022-09-03T16:22:55;21.00;36.10
6210;DHT22;3138;52.550;13.148;2022-09-03T16:25:28;20.80;35.50
6210;DHT22;3138;52.550;13.148;2022-09-03T16:28:01;20.80;36.10